createdAt,value
2023-04-19T00:01:11.109Z,102032.13
2023-04-19T00:03:37.759Z,102026.84
2023-04-19T00:06:04.591Z,102026.53
2023-04-19T00:08:30.919Z,102022.91
2023-04-19T00:10:57.301Z,102023.72
2023-04-19T00:13:23.631Z,102019.28
2023-04-19T00:15:50.187Z,102014.81
2023-04-19T00:18:16.698Z,102012.00
2023-04-19T00:20:43.155Z,102007.56
2023-04-19T00:23:09.545Z,102013.19
2023-04-19T00:25:36.059Z,102011.53
2023-04-19T00:28:02.468Z,102009.56
2023-04-19T00:30:29.129Z,102005.13
2023-04-19T00:32:55.897Z,102009.09
2023-04-19T00:35:22.357Z,102004.94
2023-04-19T00:37:48.944Z,102015.84
2023-04-19T00:40:15.386Z,102007.75
2023-04-19T00:42:42.227Z,101997.72
2023-04-19T00:45:09.156Z,101994.91
2023-04-19T00:47:36.094Z,101998.06
2023-04-19T00:50:04.775Z,101995.25
2023-04-19T00:52:33.176Z,101997.22
2023-04-19T00:55:00.178Z,101986.84
2023-04-19T00:57:27.083Z,101995.25
2023-04-19T00:59:55.045Z,101991.59
2023-04-19T01:02:24.671Z,101991.59
2023-04-19T01:04:51.804Z,101987.16
2023-04-19T01:07:19.420Z,101987.53
2023-04-19T01:09:46.630Z,101987.88
2023-04-19T01:12:12.967Z,101989.03
2023-04-19T01:14:42.271Z,101986.56
2023-04-19T01:17:09.247Z,101988.19
2023-04-19T01:19:36.860Z,101982.13
2023-04-19T01:22:04.338Z,101980.50
2023-04-19T01:24:31.445Z,101987.25
2023-04-19T01:26:58.858Z,101980.00
2023-04-19T01:29:25.741Z,101979.19
2023-04-19T01:31:54.098Z,101985.16
2023-04-19T01:34:21.058Z,101989.13
2023-04-19T01:36:47.417Z,101987.13
2023-04-19T01:39:13.838Z,101977.41
2023-04-19T01:41:40.377Z,101980.22
2023-04-19T01:44:06.737Z,101990.63
2023-04-19T01:46:33.302Z,101976.94
2023-04-19T01:48:59.710Z,101980.94
2023-04-19T01:51:26.126Z,101984.06
2023-04-19T01:53:54.715Z,101981.59
2023-04-19T01:56:24.721Z,101981.59
2023-04-19T01:58:51.215Z,101986.41
2023-04-19T02:01:17.639Z,101988.69
2023-04-19T02:03:44.685Z,101992.69
2023-04-19T02:06:12.756Z,101987.44
2023-04-19T02:08:42.971Z,101985.28
2023-04-19T02:11:10.397Z,101985.28
2023-04-19T02:13:38.031Z,101983.66
2023-04-19T02:16:06.210Z,101990.44
2023-04-19T02:18:38.557Z,101982.38
2023-04-19T02:21:06.221Z,101980.25
2023-04-19T02:23:32.992Z,101979.75
2023-04-19T02:25:59.404Z,101984.53
2023-04-19T02:28:25.973Z,101976.84
2023-04-19T02:30:52.328Z,101983.63
2023-04-19T02:33:18.845Z,101977.53
2023-04-19T02:35:45.576Z,101978.69
2023-04-19T02:38:11.928Z,101979.84
2023-04-19T02:40:38.277Z,101981.84
2023-04-19T02:43:05.035Z,101986.59
2023-04-19T02:45:31.571Z,101986.94
2023-04-19T02:47:59.389Z,101990.09
2023-04-19T02:50:27.088Z,101991.59
2023-04-19T02:52:53.514Z,101993.59
2023-04-19T02:55:20.186Z,101992.31
2023-04-19T02:57:46.795Z,101985.72
2023-04-19T03:00:14.135Z,101985.22
2023-04-19T03:02:41.708Z,101985.59
2023-04-19T03:05:09.023Z,101990.38
2023-04-19T03:07:35.827Z,101982.31
2023-04-19T03:10:03.134Z,101985.78
2023-04-19T03:12:29.506Z,101981.69
2023-04-19T03:14:55.976Z,101991.25
2023-04-19T03:17:22.616Z,101987.47
2023-04-19T03:19:49.322Z,101975.81
2023-04-19T03:22:16.418Z,101974.03
2023-04-19T03:24:42.815Z,101972.75
2023-04-19T03:27:09.259Z,101973.41
2023-04-19T03:29:35.840Z,101964.84
2023-04-19T03:32:02.448Z,101968.34
2023-04-19T03:34:29.092Z,101973.41
2023-04-19T03:36:56.103Z,101970.16
2023-04-19T03:39:22.750Z,101968.84
2023-04-19T03:41:49.139Z,101974.28
2023-04-19T03:44:15.691Z,101968.56
2023-04-19T03:46:42.514Z,101960.00
2023-04-19T03:49:09.158Z,101961.50
2023-04-19T03:51:35.504Z,101961.84
2023-04-19T03:54:01.982Z,101956.91
2023-04-19T03:56:29.559Z,101969.28
2023-04-19T03:58:56.157Z,101961.06
2023-04-19T04:01:24.397Z,101963.72
2023-04-19T04:03:51.258Z,101966.03
2023-04-19T04:06:18.097Z,101967.56
2023-04-19T04:08:44.729Z,101964.59
2023-04-19T04:11:11.587Z,101966.06
2023-04-19T04:13:38.234Z,101977.63
2023-04-19T04:16:05.140Z,101974.34
2023-04-19T04:18:31.956Z,101971.03
2023-04-19T04:20:58.507Z,101979.78
2023-04-19T04:23:25.660Z,101973.22
2023-04-19T04:26:01.073Z,101979.47
2023-04-19T04:28:28.183Z,101979.47
2023-04-19T04:30:57.319Z,101971.25
2023-04-19T04:33:30.178Z,101975.56
2023-04-19T04:35:57.812Z,101975.88
2023-04-19T04:38:25.204Z,101973.41
2023-04-19T04:40:55.903Z,101976.06
2023-04-19T04:43:25.672Z,101978.03
2023-04-19T04:45:52.394Z,101989.22
2023-04-19T04:48:18.813Z,101981.19
2023-04-19T04:50:45.358Z,101985.94
2023-04-19T04:53:14.774Z,101983.50
2023-04-19T04:55:41.303Z,101988.59
2023-04-19T04:58:07.728Z,101986.44
2023-04-19T05:00:34.411Z,101979.91
2023-04-19T05:03:02.746Z,101982.19
2023-04-19T05:05:29.819Z,101989.75
2023-04-19T05:07:56.413Z,101987.78
2023-04-19T05:10:22.875Z,101989.28
2023-04-19T05:12:49.343Z,101980.25
2023-04-19T05:15:16.998Z,101993.72
2023-04-19T05:17:43.639Z,101993.25
2023-04-19T05:20:10.617Z,101984.69
2023-04-19T05:22:37.446Z,101992.59
2023-04-19T05:25:04.617Z,101995.72
2023-04-19T05:27:31.217Z,101982.69
2023-04-19T05:29:57.558Z,101996.19
2023-04-19T05:32:24.192Z,101996.84
2023-04-19T05:34:50.770Z,101994.72
2023-04-19T05:37:17.407Z,101994.88
2023-04-19T05:39:44.570Z,102003.94
2023-04-19T05:42:11.296Z,102000.97
2023-04-19T05:44:37.712Z,102002.47
2023-04-19T05:47:04.166Z,102004.75
2023-04-19T05:49:32.962Z,101996.72
2023-04-19T05:51:59.336Z,101998.16
2023-04-19T05:54:26.454Z,101993.25
2023-04-19T05:56:53.171Z,101996.34
2023-04-19T05:59:19.546Z,101993.91
2023-04-19T06:01:46.163Z,101995.88
2023-04-19T06:04:12.968Z,101994.38
2023-04-19T06:06:40.376Z,101993.75
2023-04-19T06:09:07.357Z,101987.81
2023-04-19T06:11:42.998Z,101988.31
2023-04-19T06:14:16.752Z,101988.31
2023-04-19T06:16:43.374Z,101985.53
2023-04-19T06:19:09.753Z,101993.91
2023-04-19T06:21:36.114Z,101988.66
2023-04-19T06:24:02.635Z,102003.13
2023-04-19T06:26:29.103Z,101993.91
2023-04-19T06:28:55.754Z,101993.41
2023-04-19T06:31:22.192Z,101986.69
2023-04-19T06:33:48.553Z,101992.59
2023-04-19T06:36:14.994Z,101988.97
2023-04-19T06:38:46.991Z,102002.63
2023-04-19T06:41:13.386Z,101992.28
2023-04-19T06:43:40.856Z,101997.88
2023-04-19T06:46:08.402Z,101999.97
2023-04-19T06:48:36.171Z,101998.00
2023-04-19T06:51:02.822Z,102002.13
2023-04-19T06:53:29.465Z,101997.00
2023-04-19T06:56:03.587Z,102005.41
2023-04-19T06:58:33.277Z,102005.09
2023-04-19T07:01:02.004Z,101996.03
2023-04-19T07:03:28.556Z,101997.34
2023-04-19T07:05:57.252Z,101997.03
2023-04-19T07:08:32.156Z,101997.66
2023-04-19T07:11:02.048Z,102003.09
2023-04-19T07:13:28.480Z,102006.69
2023-04-19T07:15:55.007Z,102007.56
2023-04-19T07:18:21.864Z,102004.75
2023-04-19T07:20:49.385Z,102014.78
2023-04-19T07:23:15.981Z,102002.78
2023-04-19T07:25:42.302Z,102005.25
2023-04-19T07:28:08.729Z,102000.50
2023-04-19T07:30:35.970Z,102014.47
2023-04-19T07:33:04.528Z,102004.91
2023-04-19T07:35:31.139Z,102002.28
2023-04-19T07:37:57.692Z,101998.16
2023-04-19T07:40:24.065Z,102005.56
2023-04-19T07:42:51.457Z,102007.69
2023-04-19T07:45:17.854Z,102010.31
2023-04-19T07:47:44.682Z,102007.69
2023-04-19T07:50:12.344Z,102006.34
2023-04-19T07:52:39.016Z,102006.66
2023-04-19T07:55:06.121Z,102010.94
2023-04-19T07:57:32.725Z,102015.66
2023-04-19T07:59:59.304Z,102011.84
2023-04-19T08:02:27.722Z,102023.38
2023-04-19T08:04:54.768Z,102028.44
2023-04-19T08:07:23.131Z,102026.91
2023-04-19T08:09:49.843Z,102006.16
2023-04-19T08:12:30.339Z,102017.19
2023-04-19T08:15:06.722Z,102004.16
2023-04-19T08:17:44.147Z,102013.66
2023-04-19T08:20:12.272Z,102010.84
2023-04-19T08:22:39.748Z,102009.16
2023-04-19T08:25:08.041Z,102012.69
2023-04-19T08:27:36.604Z,102003.41
2023-04-19T08:30:03.604Z,102000.72
2023-04-19T08:32:31.992Z,102004.72
2023-04-19T08:34:58.860Z,102013.28
2023-04-19T08:37:25.861Z,102008.84
2023-04-19T08:39:52.581Z,102003.91
2023-04-19T08:45:06.359Z,102022.78
2023-04-19T08:47:52.000Z,102013.91
2023-04-19T08:50:32.440Z,102008.50
2023-04-19T08:53:20.309Z,102016.25
2023-04-19T08:58:28.909Z,102007.09
2023-04-19T09:01:00.176Z,102003.00
2023-04-19T09:03:27.003Z,101999.38
2023-04-19T09:05:54.533Z,102006.16
2023-04-19T09:08:31.581Z,101998.41
2023-04-19T09:11:01.355Z,101996.91
2023-04-19T09:13:29.463Z,101999.69
2023-04-19T09:16:02.150Z,101983.75
2023-04-19T09:18:31.430Z,101994.59
2023-04-19T09:21:00.954Z,101999.03
2023-04-19T09:23:31.028Z,101989.16
2023-04-19T09:26:22.245Z,101981.56
2023-04-19T09:29:07.283Z,101973.16
2023-04-19T09:31:50.950Z,101973.41
2023-04-19T09:34:19.451Z,101967.94
2023-04-19T09:36:46.915Z,101962.16
2023-04-19T09:39:15.080Z,101969.53
2023-04-19T09:41:54.843Z,101961.59
2023-04-19T09:44:56.110Z,101960.25
2023-04-19T09:47:47.073Z,101957.09
2023-04-19T09:52:44.985Z,101951.25
2023-04-19T09:55:25.012Z,101947.28
2023-04-19T09:57:56.201Z,101947.91
2023-04-19T10:00:23.395Z,101934.72
2023-04-19T10:02:57.701Z,101935.53
2023-04-19T10:05:26.418Z,101925.59
2023-04-19T10:07:56.511Z,101930.53
2023-04-19T10:10:40.432Z,101928.78
2023-04-19T10:13:19.062Z,101923.19
2023-04-19T10:15:52.498Z,101915.59
2023-04-19T10:18:20.463Z,101919.69
2023-04-19T10:21:01.143Z,101916.44
2023-04-19T10:23:29.338Z,101903.34
2023-04-19T10:26:02.373Z,101903.81
2023-04-19T10:28:30.132Z,101905.09
2023-04-19T10:31:02.234Z,101896.00
2023-04-19T10:33:33.293Z,101886.19
2023-04-19T10:36:00.710Z,101892.44
2023-04-19T10:38:36.507Z,101881.81
2023-04-19T10:41:04.226Z,101884.16
2023-04-19T10:43:34.033Z,101908.81
2023-04-19T10:46:08.662Z,101893.06
2023-04-19T10:48:38.840Z,101890.72
2023-04-19T10:51:07.433Z,101872.69
2023-04-19T10:53:46.547Z,101871.53
2023-04-19T10:56:13.743Z,101879.38
2023-04-19T10:59:02.673Z,101872.13
2023-04-19T11:01:40.703Z,101870.59
2023-04-19T11:04:08.830Z,101867.09
2023-04-19T11:06:39.481Z,101865.91
2023-04-19T11:09:10.339Z,101856.44
2023-04-19T11:11:37.215Z,101862.19
2023-04-19T11:14:04.928Z,101856.66
2023-04-19T11:16:45.040Z,101851.28
2023-04-19T11:19:19.992Z,101843.78
2023-04-19T11:21:47.804Z,101848.44
2023-04-19T11:24:18.646Z,101836.50
2023-04-19T11:26:46.312Z,101833.81
2023-04-19T11:29:12.763Z,101833.06
2023-04-19T11:31:39.257Z,101827.56
2023-04-19T11:34:06.082Z,101850.53
2023-04-19T11:36:32.513Z,101821.25
2023-04-19T11:38:59.118Z,101815.63
2023-04-19T11:41:25.467Z,101819.28
2023-04-19T11:43:52.165Z,101810.50
2023-04-19T11:46:18.843Z,101809.78
2023-04-19T11:48:53.482Z,101804.63
2023-04-19T11:51:20.543Z,101791.13
2023-04-19T11:53:47.262Z,101800.47
2023-04-19T11:56:15.585Z,101792.97
2023-04-19T11:58:48.559Z,101783.84
2023-04-19T12:01:19.725Z,101777.94
2023-04-19T12:03:49.444Z,101773.25
2023-04-19T12:06:24.399Z,101770.88
2023-04-19T12:08:52.405Z,101776.72
2023-04-19T12:11:21.660Z,101760.72
2023-04-19T12:13:48.880Z,101762.47
2023-04-19T12:16:15.362Z,101767.00
2023-04-19T12:18:53.373Z,101758.66
2023-04-19T12:21:27.577Z,101762.78
2023-04-19T12:23:56.272Z,101753.31
2023-04-19T12:26:23.210Z,101753.78
2023-04-19T12:28:49.610Z,101745.88
2023-04-19T12:31:16.484Z,101749.97
2023-04-19T12:33:43.044Z,101743.63
2023-04-19T12:36:09.591Z,101763.84
2023-04-19T12:38:37.680Z,101747.44
2023-04-19T12:41:04.269Z,101738.75
2023-04-19T12:43:31.912Z,101733.19
2023-04-19T12:45:58.995Z,101733.28
2023-04-19T12:48:26.046Z,101727.28
2023-04-19T12:50:53.290Z,101722.09
2023-04-19T12:53:20.453Z,101729.84
2023-04-19T12:55:47.609Z,101731.91
2023-04-19T12:58:14.917Z,101723.53
2023-04-19T13:00:41.535Z,101725.97
2023-04-19T13:03:08.055Z,101724.78
2023-04-19T13:05:34.486Z,101713.19
2023-04-19T13:08:01.201Z,101699.47
2023-04-19T13:10:28.043Z,101713.09
2023-04-19T13:12:54.533Z,101705.84
2023-04-19T13:15:20.908Z,101703.38
2023-04-19T13:17:47.555Z,101708.66
2023-04-19T13:20:14.159Z,101697.41
2023-04-19T13:22:40.586Z,101684.94
2023-04-19T13:25:07.290Z,101685.84
2023-04-19T13:27:33.668Z,101681.03
2023-04-19T13:30:01.079Z,101693.91
2023-04-19T13:32:27.986Z,101697.19
2023-04-19T13:34:54.385Z,101686.75
2023-04-19T13:37:22.344Z,101668.69
2023-04-19T13:39:48.736Z,101666.66
2023-04-19T13:42:15.766Z,101675.56
2023-04-19T13:44:42.208Z,101666.38
2023-04-19T13:47:09.750Z,101651.94
2023-04-19T13:49:36.133Z,101646.75
2023-04-19T13:52:02.520Z,101664.09
2023-04-19T13:54:29.135Z,101661.72
2023-04-19T13:56:57.796Z,101646.06
2023-04-19T13:59:26.501Z,101650.97
2023-04-19T14:01:55.792Z,101632.09
2023-04-19T14:04:22.670Z,101642.53
2023-04-19T14:06:49.593Z,101643.44
2023-04-19T14:09:16.579Z,101632.16
2023-04-19T14:11:43.657Z,101630.50
2023-04-19T14:14:12.306Z,101625.72
2023-04-19T14:16:38.719Z,101627.69
2023-04-19T14:19:05.195Z,101629.03
2023-04-19T14:21:32.166Z,101616.50
2023-04-19T14:23:59.381Z,101612.47
2023-04-19T14:26:27.521Z,101621.25
2023-04-19T14:28:54.369Z,101620.44
2023-04-19T14:31:22.652Z,101616.00
2023-04-19T14:33:49.027Z,101612.38
2023-04-19T14:36:15.890Z,101605.94
2023-04-19T14:38:42.309Z,101600.72
2023-04-19T14:41:08.640Z,101600.72
2023-04-19T14:43:35.030Z,101595.56
2023-04-19T14:46:01.563Z,101583.53
2023-04-19T14:48:28.027Z,101597.31
2023-04-19T14:50:54.634Z,101591.38
2023-04-19T14:53:21.026Z,101578.56
2023-04-19T14:55:47.687Z,101575.81
2023-04-19T14:58:14.370Z,101579.06
2023-04-19T15:00:40.956Z,101577.06
2023-04-19T15:03:08.815Z,101576.66
2023-04-19T15:05:36.616Z,101573.03
2023-04-19T15:08:03.367Z,101561.34
2023-04-19T15:10:29.846Z,101556.44
2023-04-19T15:12:56.778Z,101558.03
2023-04-19T15:15:23.255Z,101556.75
2023-04-19T15:17:49.637Z,101552.72
2023-04-19T15:20:16.135Z,101551.81
2023-04-19T15:22:42.512Z,101554.19
2023-04-19T15:25:09.514Z,101554.13
2023-04-19T15:27:35.905Z,101554.06
2023-04-19T15:30:02.493Z,101551.63
2023-04-19T15:32:30.924Z,101551.16
2023-04-19T15:34:57.524Z,101549.53
2023-04-19T15:37:23.943Z,101543.47
2023-04-19T15:39:50.343Z,101546.72
2023-04-19T15:42:16.885Z,101554.78
2023-04-19T15:44:44.286Z,101570.06
2023-04-19T15:47:10.809Z,101558.00
2023-04-19T15:49:39.873Z,101550.28
2023-04-19T15:52:06.999Z,101549.03
2023-04-19T15:54:33.368Z,101553.84
2023-04-19T15:57:01.917Z,101549.78
2023-04-19T15:59:28.494Z,101559.09
2023-04-19T16:01:55.001Z,101553.56
2023-04-19T16:04:21.942Z,101560.38
2023-04-19T16:06:48.635Z,101559.09
2023-04-19T16:09:15.598Z,101549.78
2023-04-19T16:11:42.398Z,101553.69
2023-04-19T16:14:08.755Z,101550.06
2023-04-19T16:16:35.400Z,101539.56
2023-04-19T16:19:01.857Z,101542.00
2023-04-19T16:21:28.839Z,101540.81
2023-04-19T16:23:56.298Z,101548.53
2023-04-19T16:26:25.334Z,101555.41
2023-04-19T16:36:13.455Z,101550.97
2023-04-19T16:38:40.068Z,101555.72
2023-04-19T16:41:08.001Z,101547.66
2023-04-19T16:43:35.016Z,101548.38
2023-04-19T16:46:01.665Z,101554.31
2023-04-19T16:48:28.326Z,101552.25
2023-04-19T16:50:54.782Z,101546.91
2023-04-19T16:53:21.434Z,101550.00
2023-04-19T16:55:47.913Z,101560.75
2023-04-19T16:58:14.605Z,101549.78
2023-04-19T17:00:41.067Z,101546.44
2023-04-19T17:03:09.359Z,101540.28
2023-04-19T17:05:36.108Z,101546.19
2023-04-19T17:08:02.650Z,101543.69
2023-04-19T17:10:29.072Z,101538.78
2023-04-19T17:12:58.185Z,101533.91
2023-04-19T17:15:24.551Z,101533.00
2023-04-19T17:17:51.040Z,101542.97
2023-04-19T17:20:17.511Z,101554.97
2023-04-19T17:22:43.888Z,101540.84
2023-04-19T17:25:10.321Z,101540.38
2023-04-19T17:27:36.905Z,101541.13
2023-04-19T17:30:03.875Z,101547.94
2023-04-19T17:32:30.300Z,101542.56
2023-04-19T17:34:56.756Z,101541.69
2023-04-19T17:37:23.340Z,101547.22
2023-04-19T17:39:49.837Z,101544.31
2023-04-19T17:42:16.644Z,101551.50
2023-04-19T17:44:43.031Z,101549.41
2023-04-19T17:47:09.427Z,101550.94
2023-04-19T17:49:36.507Z,101552.06
2023-04-19T17:52:03.229Z,101551.50
2023-04-19T17:54:32.195Z,101545.00
2023-04-19T17:56:59.976Z,101554.94
2023-04-19T17:59:26.641Z,101548.44
2023-04-19T18:01:58.165Z,101552.75
2023-04-19T18:04:25.038Z,101554.66
2023-04-19T18:06:53.038Z,101549.75
2023-04-19T18:09:20.315Z,101544.41
2023-04-19T18:11:47.847Z,101548.31
2023-04-19T18:14:15.539Z,101556.63
2023-04-19T18:16:42.295Z,101555.75
2023-04-19T18:21:52.104Z,101558.72
2023-04-19T18:24:25.707Z,101558.63
2023-04-19T18:26:53.970Z,101563.31
2023-04-19T18:29:22.948Z,101558.06
2023-04-19T18:31:52.424Z,101567.09
2023-04-19T18:34:19.781Z,101566.66
2023-04-19T18:36:46.295Z,101567.34
2023-04-19T18:39:14.657Z,101567.28
2023-04-19T18:41:45.385Z,101572.78
2023-04-19T18:46:41.063Z,101568.59
2023-04-19T18:49:08.398Z,101577.72
2023-04-19T18:51:35.242Z,101572.75
2023-04-19T18:54:04.999Z,101573.81
2023-04-19T18:57:10.957Z,101577.69
2023-04-19T18:59:19.886Z,101576.75
2023-04-19T19:01:46.827Z,101569.75
2023-04-19T19:07:14.370Z,101574.69
2023-04-19T19:09:55.641Z,101574.56
2023-04-19T19:12:22.860Z,101581.22
2023-04-19T19:14:53.003Z,101582.28
2023-04-19T19:17:19.689Z,101590.59
2023-04-19T19:19:46.164Z,101584.06
2023-04-19T19:22:27.908Z,101579.53
2023-04-19T19:25:02.275Z,101583.03
2023-04-19T19:27:30.847Z,101586.88
2023-04-19T19:29:58.609Z,101583.25
2023-04-19T19:32:25.329Z,101578.84
2023-04-19T19:34:56.404Z,101578.72
2023-04-19T19:37:27.828Z,101581.41
2023-04-19T19:39:56.468Z,101579.66
2023-04-19T19:42:24.119Z,101579.56
2023-04-19T19:44:55.233Z,101585.84
2023-04-19T19:47:25.043Z,101584.56
2023-04-19T19:52:21.874Z,101594.84
2023-04-19T19:54:48.488Z,101592.28
2023-04-19T19:59:51.587Z,101593.34
2023-04-19T20:02:25.194Z,101598.47
2023-04-19T20:04:51.996Z,101597.50
2023-04-19T20:07:37.274Z,101592.28
2023-04-19T20:10:12.934Z,101604.53
2023-04-19T20:12:43.913Z,101603.22
2023-04-19T20:15:11.882Z,101603.56
2023-04-19T20:17:44.896Z,101600.66
2023-04-19T20:20:11.971Z,101607.75
2023-04-19T20:22:39.615Z,101607.63
2023-04-19T20:25:06.760Z,101609.16
2023-04-19T20:27:34.899Z,101601.28
2023-04-19T20:30:08.116Z,101600.34
2023-04-19T20:32:40.418Z,101604.19
2023-04-19T20:35:11.732Z,101606.41
2023-04-19T20:37:42.774Z,101603.81
2023-04-19T20:40:18.032Z,101601.59
2023-04-19T20:42:44.938Z,101597.50
2023-04-19T20:45:12.128Z,101596.56
2023-04-19T20:47:43.008Z,101598.88
2023-04-19T20:50:10.090Z,101586.41
2023-04-19T20:52:36.565Z,101592.69
2023-04-19T20:55:03.221Z,101587.78
2023-04-19T20:57:36.405Z,101590.47
2023-04-19T21:00:04.309Z,101584.88
2023-04-19T21:02:31.237Z,101588.34
2023-04-19T21:04:58.235Z,101579.81
2023-04-19T21:07:24.923Z,101576.88
2023-04-19T21:09:53.131Z,101579.56
2023-04-19T21:12:21.879Z,101577.44
2023-04-19T21:14:49.984Z,101580.91
2023-04-19T21:17:16.410Z,101578.81
2023-04-19T21:19:42.794Z,101581.13
2023-04-19T21:22:09.496Z,101570.66
2023-04-19T21:24:36.673Z,101569.00
2023-04-19T21:27:07.640Z,101564.25
2023-04-19T21:29:34.073Z,101561.75
2023-04-19T21:32:00.776Z,101555.72
2023-04-19T21:34:27.646Z,101550.47
2023-04-19T21:36:54.435Z,101559.19
2023-04-19T21:39:21.949Z,101547.53
2023-04-19T21:41:48.662Z,101547.88
2023-04-19T21:44:17.443Z,101549.50
2023-04-19T21:46:44.235Z,101551.50
2023-04-19T21:49:10.617Z,101556.59
2023-04-19T21:51:37.257Z,101544.59
2023-04-19T21:54:04.299Z,101551.34
2023-04-19T21:56:33.582Z,101553.34
2023-04-19T21:59:09.593Z,101541.66
2023-04-19T22:01:36.070Z,101542.00
2023-04-19T22:04:07.073Z,101541.19
2023-04-19T22:06:40.926Z,101537.06
2023-04-19T22:09:07.664Z,101538.22
2023-04-19T22:11:37.180Z,101540.88
2023-04-19T22:14:04.097Z,101529.25
2023-04-19T22:16:32.496Z,101541.94
2023-04-19T22:19:00.356Z,101529.44
2023-04-19T22:21:29.847Z,101530.94
2023-04-19T22:23:57.918Z,101529.66
2023-04-19T22:26:26.031Z,101520.31
2023-04-19T22:28:53.709Z,101533.81
2023-04-19T22:31:20.077Z,101526.91
2023-04-19T22:33:48.072Z,101518.41
2023-04-19T22:36:14.530Z,101515.13
2023-04-19T22:38:41.089Z,101513.00
2023-04-19T22:41:08.270Z,101508.13
2023-04-19T22:43:34.692Z,101514.53
2023-04-19T22:46:01.505Z,101514.88
2023-04-19T22:48:30.082Z,101507.63
2023-04-19T22:50:57.237Z,101507.31
2023-04-19T22:53:24.259Z,101510.56
2023-04-19T22:55:51.735Z,101500.91
2023-04-19T22:58:19.683Z,101497.63
2023-04-19T23:00:51.184Z,101491.56
2023-04-19T23:03:17.572Z,101494.38
2023-04-19T23:05:44.957Z,101481.88
2023-04-19T23:08:13.035Z,101481.06
2023-04-19T23:10:42.296Z,101475.47
2023-04-19T23:13:10.857Z,101479.44
2023-04-19T23:15:38.912Z,101483.03
2023-04-19T23:18:05.732Z,101487.47
2023-04-19T23:20:32.198Z,101481.06
2023-04-19T23:23:00.514Z,101481.41
2023-04-19T23:25:27.237Z,101476.16
2023-04-19T23:30:39.482Z,101463.34
2023-04-19T23:33:09.056Z,101459.38
2023-04-19T23:35:35.427Z,101454.66
2023-04-19T23:38:02.210Z,101455.13
2023-04-19T23:40:28.565Z,101441.50
2023-04-19T23:42:55.183Z,101439.16
2023-04-19T23:45:21.755Z,101440.47
2023-04-19T23:47:59.309Z,101431.38
2023-04-19T23:50:28.196Z,101428.28
2023-04-19T23:52:58.216Z,101420.72
2023-04-19T23:55:24.944Z,101413.97
2023-04-19T23:57:51.434Z,101411.97
